createdAt,value
2018-07-19T00:00:04.743Z,1.50
2018-07-19T00:02:33.356Z,1.40
2018-07-19T00:05:02.195Z,1.60
2018-07-19T00:07:30.976Z,1.63
2018-07-19T00:09:59.776Z,1.60
2018-07-19T00:12:28.368Z,1.30
2018-07-19T00:14:57.016Z,1.57
2018-07-19T00:17:25.573Z,1.43
2018-07-19T00:19:54.159Z,2.00
2018-07-19T00:22:22.689Z,1.60
2018-07-19T00:24:51.211Z,1.60
2018-07-19T00:27:19.827Z,1.73
2018-07-19T00:29:48.393Z,1.50
2018-07-19T00:32:17.059Z,1.50
2018-07-19T00:34:45.614Z,1.47
2018-07-19T00:37:14.175Z,1.43
2018-07-19T00:39:42.732Z,1.80
2018-07-19T00:42:11.275Z,1.70
2018-07-19T00:44:39.791Z,1.47
2018-07-19T00:47:08.326Z,1.67
2018-07-19T00:49:36.890Z,1.67
2018-07-19T00:52:05.441Z,1.63
2018-07-19T00:54:33.977Z,1.60
2018-07-19T00:57:02.514Z,1.40
2018-07-19T00:59:31.160Z,1.70
2018-07-19T01:01:59.695Z,1.43
2018-07-19T01:04:28.221Z,1.30
2018-07-19T01:06:56.795Z,1.73
2018-07-19T01:09:26.448Z,1.33
2018-07-19T01:11:54.968Z,1.40
2018-07-19T01:14:23.512Z,1.40
2018-07-19T01:16:52.055Z,1.53
2018-07-19T01:19:20.576Z,1.43
2018-07-19T01:21:49.196Z,1.60
2018-07-19T01:24:17.760Z,1.40
2018-07-19T01:26:46.329Z,1.90
2018-07-19T01:29:14.887Z,1.63
2018-07-19T01:31:43.415Z,2.10
2018-07-19T01:34:11.970Z,2.10
2018-07-19T01:36:40.804Z,1.80
2018-07-19T01:39:10.443Z,1.83
2018-07-19T01:42:43.034Z,1.97
2018-07-19T01:45:12.395Z,2.33
2018-07-19T01:47:41.327Z,2.30
2018-07-19T01:50:10.866Z,2.20
2018-07-19T01:52:39.468Z,2.07
2018-07-19T01:55:08.612Z,2.30
2018-07-19T01:57:38.543Z,2.13
2018-07-19T02:00:07.462Z,2.60
2018-07-19T02:02:35.993Z,2.27
2018-07-19T02:05:04.747Z,2.80
2018-07-19T02:07:33.321Z,3.10
2018-07-19T02:10:02.269Z,3.13
2018-07-19T02:12:30.831Z,2.80
2018-07-19T02:14:59.819Z,2.90
2018-07-19T02:17:28.336Z,3.07
2018-07-19T02:19:56.930Z,3.23
2018-07-19T02:22:25.479Z,3.77
2018-07-19T02:24:54.013Z,3.30
2018-07-19T02:27:22.519Z,2.70
2018-07-19T02:29:51.112Z,3.10
2018-07-19T02:32:19.644Z,3.00
2018-07-19T02:34:48.177Z,3.10
2018-07-19T02:37:16.708Z,3.03
2018-07-19T02:39:45.263Z,2.90
2018-07-19T02:42:13.868Z,2.90
2018-07-19T02:44:42.419Z,3.40
2018-07-19T02:47:10.979Z,2.90
2018-07-19T02:49:39.507Z,3.07
2018-07-19T02:52:08.032Z,3.17
2018-07-19T02:54:36.567Z,3.00
2018-07-19T02:57:05.167Z,3.07
2018-07-19T02:59:33.701Z,3.00
2018-07-19T03:02:02.292Z,3.27
2018-07-19T03:04:30.876Z,3.10
2018-07-19T03:06:59.420Z,3.13
2018-07-19T03:09:27.937Z,3.03
2018-07-19T03:11:56.801Z,2.77
2018-07-19T03:14:25.315Z,2.83
2018-07-19T03:16:53.852Z,3.13
2018-07-19T03:19:22.733Z,3.17
2018-07-19T03:21:51.528Z,2.70
2018-07-19T03:24:20.055Z,2.70
2018-07-19T03:26:48.571Z,2.83
2018-07-19T03:29:17.224Z,3.00
2018-07-19T03:31:45.761Z,2.70
2018-07-19T03:34:14.271Z,2.63
2018-07-19T03:36:42.823Z,2.63
2018-07-19T03:39:11.945Z,2.80
2018-07-19T03:41:40.772Z,2.33
2018-07-19T03:44:09.320Z,2.50
2018-07-19T03:46:37.939Z,3.00
2018-07-19T03:49:06.444Z,2.67
2018-07-19T03:51:35.105Z,2.53
2018-07-19T03:54:03.742Z,3.47
2018-07-19T03:56:32.300Z,2.80
2018-07-19T03:59:00.841Z,3.03
2018-07-19T04:01:29.428Z,2.47
2018-07-19T04:03:57.954Z,2.90
2018-07-19T04:06:26.480Z,2.30
2018-07-19T04:08:55.033Z,3.00
2018-07-19T04:11:23.563Z,2.60
2018-07-19T04:13:52.377Z,2.20
2018-07-19T04:16:20.920Z,2.93
2018-07-19T04:18:49.475Z,2.57
2018-07-19T04:21:18.048Z,3.07
2018-07-19T04:23:46.643Z,2.23
2018-07-19T04:26:15.163Z,2.73
2018-07-19T04:28:43.863Z,2.33
2018-07-19T04:31:12.413Z,2.10
2018-07-19T04:33:40.923Z,2.60
2018-07-19T04:36:09.439Z,2.70
2018-07-19T04:38:37.991Z,2.30
2018-07-19T04:41:06.544Z,2.20
2018-07-19T04:43:35.131Z,2.80
2018-07-19T04:46:03.698Z,2.70
2018-07-19T04:48:32.231Z,2.63
2018-07-19T04:51:00.766Z,2.33
2018-07-19T04:53:29.286Z,2.23
2018-07-19T04:55:57.872Z,4.50
2018-07-19T04:58:26.423Z,2.97
2018-07-19T05:00:54.992Z,2.23
2018-07-19T05:03:23.495Z,2.60
2018-07-19T05:05:52.003Z,2.90
2018-07-19T05:08:20.571Z,2.90
2018-07-19T05:10:49.177Z,3.10
2018-07-19T05:13:17.707Z,2.53
2018-07-19T05:15:46.648Z,3.47
2018-07-19T05:18:15.170Z,3.07
2018-07-19T05:20:43.730Z,3.10
2018-07-19T05:23:12.287Z,4.70
2018-07-19T05:25:40.827Z,3.20
2018-07-19T05:28:09.402Z,3.73
2018-07-19T05:30:37.934Z,3.40
2018-07-19T05:33:06.536Z,3.77
2018-07-19T05:35:35.059Z,3.20
2018-07-19T05:38:03.681Z,3.47
2018-07-19T05:40:32.382Z,3.73
2018-07-19T05:43:00.943Z,3.27
2018-07-19T05:45:29.467Z,3.70
2018-07-19T05:47:58.001Z,3.60
2018-07-19T05:50:26.555Z,4.40
2018-07-19T05:52:55.092Z,3.63
2018-07-19T05:55:23.716Z,4.17
2018-07-19T05:57:52.254Z,4.03
2018-07-19T06:00:20.931Z,3.50
2018-07-19T06:02:49.523Z,3.40
2018-07-19T06:05:18.043Z,4.03
2018-07-19T06:07:46.587Z,4.13
2018-07-19T06:10:15.174Z,3.73
2018-07-19T06:12:43.885Z,3.37
2018-07-19T06:15:12.410Z,3.87
2018-07-19T06:17:41.371Z,3.47
2018-07-19T06:20:10.237Z,4.30
2018-07-19T06:22:38.997Z,3.80
2018-07-19T06:25:07.572Z,3.57
2018-07-19T06:27:36.114Z,3.60
2018-07-19T06:30:05.592Z,3.33
2018-07-19T06:32:34.193Z,3.13
2018-07-19T06:35:02.755Z,3.30
2018-07-19T06:37:31.427Z,3.37
2018-07-19T06:39:59.990Z,3.03
2018-07-19T06:42:28.592Z,3.00
2018-07-19T06:44:57.175Z,3.33
2018-07-19T06:47:25.719Z,3.40
2018-07-19T06:49:54.312Z,2.93
2018-07-19T06:52:23.025Z,3.30
2018-07-19T06:54:51.614Z,3.33
2018-07-19T06:57:20.118Z,3.00
2018-07-19T06:59:48.653Z,5.27
2018-07-19T07:02:17.223Z,3.93
2018-07-19T07:04:45.911Z,3.77
2018-07-19T07:07:14.434Z,3.67
2018-07-19T07:09:43.056Z,3.73
2018-07-19T07:12:11.575Z,3.40
2018-07-19T07:14:40.100Z,3.00
2018-07-19T07:17:08.655Z,4.30
2018-07-19T07:19:37.372Z,3.37
2018-07-19T07:22:05.931Z,3.90
2018-07-19T07:24:34.529Z,3.87
2018-07-19T07:27:03.093Z,3.90
2018-07-19T07:29:32.211Z,3.23
2018-07-19T07:32:01.295Z,3.20
2018-07-19T07:34:30.704Z,4.00
2018-07-19T07:36:59.503Z,3.37
2018-07-19T07:39:28.058Z,2.80
2018-07-19T07:41:56.650Z,3.20
2018-07-19T07:44:25.212Z,3.93
2018-07-19T07:46:53.838Z,3.20
2018-07-19T07:49:22.431Z,3.00
2018-07-19T07:51:51.091Z,3.03
2018-07-19T07:54:19.688Z,3.20
2018-07-19T07:56:48.508Z,2.43
2018-07-19T07:59:17.063Z,2.97
2018-07-19T08:01:45.611Z,2.83
2018-07-19T08:04:14.151Z,3.70
2018-07-19T08:06:42.714Z,3.40
2018-07-19T08:09:11.346Z,2.97
2018-07-19T08:11:39.877Z,3.40
2018-07-19T08:14:08.487Z,3.13
2018-07-19T08:16:37.033Z,3.30
2018-07-19T08:19:05.572Z,3.40
2018-07-19T08:21:34.259Z,3.27
2018-07-19T08:24:02.832Z,3.30
2018-07-19T08:26:31.353Z,3.30
2018-07-19T08:28:59.933Z,3.00
2018-07-19T08:31:28.501Z,2.80
2018-07-19T08:33:57.038Z,3.10
2018-07-19T08:36:25.590Z,2.90
2018-07-19T08:38:54.147Z,2.80
2018-07-19T08:41:22.719Z,2.30
2018-07-19T08:43:51.316Z,2.50
2018-07-19T08:46:19.879Z,2.63
2018-07-19T08:48:48.392Z,2.23
2018-07-19T08:51:16.922Z,2.50
2018-07-19T08:53:45.479Z,3.00
2018-07-19T08:56:14.013Z,2.97
2018-07-19T08:58:42.543Z,2.70
2018-07-19T09:01:11.143Z,3.20
2018-07-19T09:03:39.684Z,2.67
2018-07-19T09:06:08.236Z,2.50
2018-07-19T09:08:36.810Z,2.90
2018-07-19T09:11:05.355Z,2.80
2018-07-19T09:13:33.932Z,4.43
2018-07-19T09:16:02.467Z,2.90
2018-07-19T09:18:31.014Z,3.20
2018-07-19T09:20:59.591Z,2.90
2018-07-19T09:23:28.271Z,2.73
2018-07-19T09:25:56.802Z,2.80
2018-07-19T09:28:25.331Z,2.83
2018-07-19T09:30:53.912Z,2.23
2018-07-19T09:33:22.485Z,2.40
2018-07-19T09:35:51.117Z,2.40
2018-07-19T09:38:20.008Z,3.37
2018-07-19T09:40:48.496Z,2.53
2018-07-19T09:43:17.053Z,2.70
2018-07-19T09:45:45.634Z,2.50
2018-07-19T09:48:14.189Z,2.63
2018-07-19T09:50:42.779Z,2.33
2018-07-19T09:53:11.308Z,2.30
2018-07-19T09:55:39.843Z,2.40
2018-07-19T09:58:08.420Z,2.40
2018-07-19T10:00:42.125Z,2.37
2018-07-19T10:03:10.663Z,2.30
2018-07-19T10:05:39.271Z,2.37
2018-07-19T10:08:07.869Z,2.60
2018-07-19T10:10:36.419Z,2.50
2018-07-19T10:13:04.992Z,2.23
2018-07-19T10:15:33.515Z,2.40
2018-07-19T10:18:02.181Z,2.37
2018-07-19T10:20:30.731Z,2.60
2018-07-19T10:22:59.250Z,2.50
2018-07-19T10:25:27.912Z,2.40
2018-07-19T10:27:56.544Z,2.43
2018-07-19T10:30:25.035Z,2.90
2018-07-19T10:32:53.585Z,2.70
2018-07-19T10:35:22.260Z,2.40
2018-07-19T10:37:50.813Z,2.80
2018-07-19T10:40:19.331Z,2.40
2018-07-19T10:42:47.852Z,2.50
2018-07-19T10:45:16.392Z,2.83
2018-07-19T10:47:45.017Z,2.20
2018-07-19T10:50:13.611Z,2.30
2018-07-19T10:52:42.119Z,2.13
2018-07-19T10:55:10.660Z,2.00
2018-07-19T10:57:39.189Z,2.13
2018-07-19T11:00:08.273Z,2.40
2018-07-19T11:02:37.285Z,2.63
2018-07-19T11:05:06.513Z,2.40
2018-07-19T11:07:35.020Z,2.50
2018-07-19T11:10:04.275Z,2.97
2018-07-19T11:12:32.789Z,2.97
2018-07-19T11:15:01.302Z,2.27
2018-07-19T11:17:30.684Z,2.10
2018-07-19T11:19:59.934Z,2.30
2018-07-19T11:22:29.456Z,2.50
2018-07-19T11:24:58.775Z,2.17
2018-07-19T11:27:27.986Z,2.07
2018-07-19T11:29:57.222Z,2.37
2018-07-19T11:32:26.421Z,2.10
2018-07-19T11:34:55.673Z,2.37
2018-07-19T11:37:24.926Z,2.60
2018-07-19T11:39:53.514Z,2.53
2018-07-19T11:42:22.160Z,2.47
2018-07-19T11:44:51.408Z,3.00
2018-07-19T11:47:20.649Z,2.70
2018-07-19T11:49:49.984Z,2.27
2018-07-19T11:52:19.295Z,2.20
2018-07-19T11:54:48.616Z,1.80
2018-07-19T11:57:17.692Z,2.13
2018-07-19T11:59:46.739Z,2.40
2018-07-19T12:02:15.992Z,2.30
2018-07-19T12:04:45.242Z,1.80
2018-07-19T12:07:14.238Z,1.93
2018-07-19T12:09:43.227Z,2.00
2018-07-19T12:12:11.870Z,1.90
2018-07-19T12:14:40.439Z,2.17
2018-07-19T12:17:08.948Z,2.07
2018-07-19T12:19:37.466Z,2.67
2018-07-19T12:22:06.144Z,1.83
2018-07-19T12:24:34.766Z,2.07
2018-07-19T12:27:03.920Z,2.70
2018-07-19T12:29:32.623Z,2.17
2018-07-19T12:32:01.783Z,1.93
2018-07-19T12:34:30.383Z,2.30
2018-07-19T12:36:59.011Z,2.10
2018-07-19T12:39:27.581Z,2.13
2018-07-19T12:41:56.128Z,2.70
2018-07-19T12:44:24.992Z,2.20
2018-07-19T12:46:53.566Z,2.27
2018-07-19T12:49:22.544Z,1.90
2018-07-19T12:51:51.139Z,2.40
2018-07-19T12:54:19.869Z,2.00
2018-07-19T12:56:48.460Z,2.10
2018-07-19T12:59:17.029Z,2.53
2018-07-19T13:01:45.548Z,2.20
2018-07-19T13:04:14.083Z,2.80
2018-07-19T13:06:42.579Z,2.53
2018-07-19T13:09:11.096Z,2.37
2018-07-19T13:11:39.935Z,2.40
2018-07-19T13:14:09.139Z,2.37
2018-07-19T13:16:37.850Z,2.80
2018-07-19T13:19:06.430Z,2.23
2018-07-19T13:21:35.079Z,2.57
2018-07-19T13:24:03.681Z,2.60
2018-07-19T13:26:33.011Z,2.47
2018-07-19T13:29:02.176Z,2.63
2018-07-19T13:31:31.507Z,2.27
2018-07-19T13:34:00.794Z,2.40
2018-07-19T13:36:30.110Z,2.63
2018-07-19T13:38:58.864Z,2.50
2018-07-19T13:41:27.394Z,2.50
2018-07-19T13:43:55.905Z,2.40
2018-07-19T13:46:25.246Z,2.10
2018-07-19T13:48:54.609Z,2.50
2018-07-19T13:51:23.823Z,2.63
2018-07-19T13:54:15.290Z,2.80
2018-07-19T13:56:44.389Z,2.43
2018-07-19T13:59:14.303Z,2.30
2018-07-19T14:01:43.767Z,2.30
2018-07-19T14:04:14.088Z,2.63
2018-07-19T14:06:43.539Z,2.50
2018-07-19T14:09:14.889Z,2.40
2018-07-19T14:11:44.180Z,2.37
2018-07-19T14:14:13.407Z,2.40
2018-07-19T14:16:42.748Z,2.40
2018-07-19T14:19:12.052Z,2.67
2018-07-19T14:21:41.311Z,2.40
2018-07-19T14:24:10.504Z,2.43
2018-07-19T14:26:39.071Z,2.17
2018-07-19T14:29:07.575Z,2.27
2018-07-19T14:31:36.785Z,2.40
2018-07-19T14:34:06.528Z,2.80
2018-07-19T14:36:35.452Z,2.30
2018-07-19T14:39:06.646Z,2.50
2018-07-19T14:41:35.868Z,2.33
2018-07-19T14:44:05.375Z,2.30
2018-07-19T14:46:34.247Z,2.57
2018-07-19T14:49:03.371Z,2.10
2018-07-19T14:51:32.752Z,2.40
2018-07-19T14:54:02.008Z,2.47
2018-07-19T14:56:31.232Z,2.47
2018-07-19T14:59:00.679Z,2.67
2018-07-19T15:01:29.748Z,2.60
2018-07-19T15:03:58.769Z,2.80
2018-07-19T15:06:28.103Z,2.20
2018-07-19T15:08:57.347Z,2.40
2018-07-19T15:11:26.423Z,2.30
2018-07-19T15:13:55.614Z,2.50
2018-07-19T15:16:24.841Z,2.50
2018-07-19T15:18:54.062Z,2.80
2018-07-19T15:21:23.051Z,2.47
2018-07-19T15:23:52.329Z,2.73
2018-07-19T15:26:21.575Z,2.43
2018-07-19T15:28:50.577Z,2.80
2018-07-19T15:31:19.775Z,2.80
2018-07-19T15:33:49.245Z,2.57
2018-07-19T15:36:18.492Z,2.60
2018-07-19T15:38:48.045Z,2.37
2018-07-19T15:41:17.321Z,2.43
2018-07-19T15:43:46.528Z,2.87
2018-07-19T15:46:15.747Z,2.90
2018-07-19T15:48:44.255Z,2.40
2018-07-19T15:51:12.785Z,2.50
2018-07-19T15:53:42.075Z,2.80
2018-07-19T15:56:11.303Z,2.27
2018-07-19T15:58:40.673Z,2.83
2018-07-19T16:01:09.927Z,2.33
2018-07-19T16:03:39.154Z,2.20
2018-07-19T16:06:08.369Z,2.40
2018-07-19T16:08:37.390Z,2.40
2018-07-19T16:11:07.230Z,2.50
2018-07-19T16:13:36.441Z,2.60
2018-07-19T16:16:05.689Z,2.50
2018-07-19T16:18:34.669Z,2.33
2018-07-19T16:21:03.928Z,2.73
2018-07-19T16:23:33.153Z,2.50
2018-07-19T16:26:02.395Z,2.40
2018-07-19T16:28:31.376Z,2.30
2018-07-19T16:31:00.409Z,2.80
2018-07-19T16:33:29.664Z,2.40
2018-07-19T16:35:58.873Z,2.47
2018-07-19T16:38:28.120Z,2.40
2018-07-19T16:40:57.150Z,2.40
2018-07-19T16:43:26.395Z,2.53
2018-07-19T16:45:55.603Z,2.70
2018-07-19T16:48:24.815Z,2.50
2018-07-19T16:50:54.056Z,2.30
2018-07-19T16:53:23.252Z,2.40
2018-07-19T16:55:52.335Z,2.70
2018-07-19T16:58:21.529Z,2.33
2018-07-19T17:00:50.755Z,2.70
2018-07-19T17:03:19.980Z,2.27
2018-07-19T17:05:49.180Z,2.27
2018-07-19T17:08:18.440Z,2.50
2018-07-19T17:10:47.657Z,2.50
2018-07-19T17:13:16.421Z,2.57
2018-07-19T17:15:45.029Z,2.60
2018-07-19T17:18:13.555Z,2.70
2018-07-19T17:20:42.060Z,3.00
2018-07-19T17:23:10.579Z,2.70
2018-07-19T17:25:39.079Z,2.97
2018-07-19T17:28:07.583Z,2.93
2018-07-19T17:30:36.097Z,2.80
2018-07-19T17:33:04.654Z,2.60
2018-07-19T17:35:33.996Z,2.60
2018-07-19T17:38:03.248Z,3.03
2018-07-19T17:40:32.508Z,2.83
2018-07-19T17:43:01.481Z,3.00
2018-07-19T17:45:30.738Z,3.03
2018-07-19T17:48:00.166Z,3.10
2018-07-19T17:50:29.427Z,2.90
2018-07-19T17:52:57.928Z,2.53
2018-07-19T17:55:26.507Z,3.00
2018-07-19T17:57:55.478Z,3.17
2018-07-19T18:00:24.515Z,3.60
2018-07-19T18:02:53.515Z,2.47
2018-07-19T18:05:22.562Z,2.87
2018-07-19T18:07:51.597Z,3.67
2018-07-19T18:10:20.833Z,2.77
2018-07-19T18:12:50.039Z,3.17
2018-07-19T18:15:19.078Z,3.50
2018-07-19T18:17:47.732Z,3.00
2018-07-19T18:20:17.371Z,3.63
2018-07-19T18:22:46.658Z,2.93
2018-07-19T18:25:15.977Z,2.90
2018-07-19T18:27:45.902Z,2.80
2018-07-19T18:30:15.206Z,2.50
2018-07-19T18:32:44.816Z,3.27
2018-07-19T18:35:14.167Z,2.83
2018-07-19T18:37:42.823Z,2.63
2018-07-19T18:40:12.322Z,2.93
2018-07-19T18:42:40.897Z,3.00
2018-07-19T18:45:10.603Z,2.97
2018-07-19T18:47:39.888Z,2.47
2018-07-19T18:50:09.188Z,3.10
2018-07-19T18:52:38.323Z,2.37
2018-07-19T18:55:07.513Z,2.67
2018-07-19T18:57:37.025Z,3.90
2018-07-19T19:00:06.449Z,3.23
2018-07-19T19:02:36.110Z,2.60
2018-07-19T19:05:05.351Z,2.93
2018-07-19T19:07:34.504Z,2.87
2018-07-19T19:10:03.831Z,2.77
2018-07-19T19:12:33.035Z,2.80
2018-07-19T19:15:02.283Z,2.37
2018-07-19T19:17:31.493Z,3.33
2018-07-19T19:20:00.714Z,2.60
2018-07-19T19:22:29.932Z,2.57
2018-07-19T19:24:58.992Z,2.90
2018-07-19T19:27:28.292Z,2.83
2018-07-19T19:29:57.592Z,3.37
2018-07-19T19:32:27.266Z,3.53
2018-07-19T19:34:56.642Z,4.03
2018-07-19T19:37:25.835Z,3.43
2018-07-19T19:39:55.393Z,3.40
2018-07-19T19:42:24.711Z,3.47
2018-07-19T19:44:53.966Z,3.33
2018-07-19T19:47:22.996Z,3.50
2018-07-19T19:49:52.235Z,3.20
2018-07-19T19:52:21.442Z,3.60
2018-07-19T19:54:50.704Z,3.43
2018-07-19T19:57:20.024Z,3.73
2018-07-19T19:59:48.535Z,3.20
2018-07-19T20:02:17.749Z,3.43
2018-07-19T20:04:46.985Z,3.10
2018-07-19T20:07:16.211Z,3.20
2018-07-19T20:09:45.229Z,3.60
2018-07-19T20:12:14.229Z,3.33
2018-07-19T20:14:43.479Z,3.30
2018-07-19T20:17:12.719Z,3.03
2018-07-19T20:19:41.943Z,3.23
2018-07-19T20:22:10.992Z,3.40
2018-07-19T20:24:40.482Z,4.13
2018-07-19T20:27:09.596Z,3.80
2018-07-19T20:29:38.869Z,4.23
2018-07-19T20:32:08.070Z,3.93
2018-07-19T20:34:37.314Z,4.13
2018-07-19T20:37:06.177Z,4.50
2018-07-19T20:39:35.145Z,4.67
2018-07-19T20:42:04.194Z,4.37
2018-07-19T20:44:33.593Z,4.10
2018-07-19T20:47:02.877Z,4.10
2018-07-19T20:49:32.069Z,4.40
2018-07-19T20:52:01.284Z,4.90
2018-07-19T20:54:30.606Z,4.70
2018-07-19T20:57:00.004Z,5.50
2018-07-19T20:59:28.993Z,5.23
2018-07-19T21:01:58.243Z,4.17
2018-07-19T21:04:27.442Z,4.73
2018-07-19T21:06:56.672Z,4.10
2018-07-19T21:09:25.772Z,4.57
2018-07-19T21:11:54.809Z,4.20
2018-07-19T21:14:24.217Z,4.43
2018-07-19T21:16:53.459Z,4.77
2018-07-19T21:19:22.777Z,4.93
2018-07-19T21:21:52.013Z,4.70
2018-07-19T21:24:21.223Z,4.40
2018-07-19T21:26:50.291Z,4.37
2018-07-19T21:29:19.256Z,4.20
2018-07-19T21:31:48.277Z,4.57
2018-07-19T21:34:17.579Z,3.50
2018-07-19T21:36:46.787Z,3.47
2018-07-19T21:39:15.989Z,4.33
2018-07-19T21:41:45.003Z,3.93
2018-07-19T21:44:14.052Z,4.93
2018-07-19T21:46:43.571Z,4.03
2018-07-19T21:49:12.681Z,4.70
2018-07-19T21:51:41.717Z,4.07
2018-07-19T21:54:10.763Z,4.63
2018-07-19T21:56:39.769Z,7.07
2018-07-19T21:59:08.801Z,4.97
2018-07-19T22:01:43.009Z,5.20
2018-07-19T22:04:12.181Z,4.43
2018-07-19T22:06:41.543Z,4.93
2018-07-19T22:09:11.775Z,4.90
2018-07-19T22:11:41.082Z,4.20
2018-07-19T22:14:10.373Z,4.70
2018-07-19T22:16:40.277Z,4.13
2018-07-19T22:19:09.270Z,4.33
2018-07-19T22:21:38.702Z,4.47
2018-07-19T22:24:07.961Z,4.70
2018-07-19T22:26:37.222Z,4.70
2018-07-19T22:29:06.400Z,4.30
2018-07-19T22:31:35.606Z,4.47
2018-07-19T22:34:04.873Z,4.30
2018-07-19T22:36:33.865Z,4.10
2018-07-19T22:39:03.055Z,3.57
2018-07-19T22:41:32.690Z,3.40
2018-07-19T22:44:01.976Z,3.73
2018-07-19T22:46:31.202Z,3.60
2018-07-19T22:49:00.661Z,3.40
2018-07-19T22:51:29.795Z,3.40
2018-07-19T22:53:58.840Z,3.00
2018-07-19T22:56:27.941Z,3.60
2018-07-19T22:58:57.112Z,3.13
2018-07-19T23:01:26.355Z,3.20
2018-07-19T23:03:55.606Z,3.23
2018-07-19T23:06:24.853Z,3.50
2018-07-19T23:08:54.243Z,2.70
2018-07-19T23:11:23.487Z,2.60
2018-07-19T23:13:52.736Z,3.27
2018-07-19T23:16:21.939Z,2.73
2018-07-19T23:18:51.115Z,3.17
2018-07-19T23:21:20.375Z,3.30
2018-07-19T23:23:49.352Z,4.07
2018-07-19T23:26:18.662Z,3.30
2018-07-19T23:28:47.947Z,2.90
2018-07-19T23:31:18.403Z,2.83
2018-07-19T23:33:47.689Z,3.23
2018-07-19T23:36:28.139Z,2.70
2018-07-19T23:39:09.923Z,3.10
2018-07-19T23:41:44.119Z,3.03
2018-07-19T23:44:18.480Z,2.60
2018-07-19T23:46:52.758Z,2.87
2018-07-19T23:49:21.811Z,3.00
2018-07-19T23:51:50.975Z,2.70
2018-07-19T23:54:20.216Z,2.77
2018-07-19T23:56:49.192Z,3.27
2018-07-19T23:59:18.485Z,2.90
